Hauptseite
METAR-TAF:

METAR-TAF

Flughäfen :

Flughafen London Heathrow

London-Heathrow, England

Breite: 51-29N, Länge: 000-27W, Höhe: 24 m

Beobachtung

Neuester Wetterbericht von vor 33 Minuten, um 08:20 UTC
Wind 7 kt aus West, variierte zwischen West/Südwest und West/Nordwest
Temperatur 17°C
Luftfeuchtigkeit 72%
Luftdruck 1020 hPa
Sichtweite 10 km oder mehr

METAR: EGLL 170820Z AUTO 27007KT 240V300 9999 NCD 17/12 Q1020 NOSIG

Zeit: 09:53 (08:53 UTC)

Prognose

Neuester Wetterbericht von vor 3 Stunden und 49 Minuten, um 05:04 UTC
Gültige Prognose vom 17 um 06 UTC bis 18 um 12 UTC
Wind 8 kt aus West
Sichtweite 10 km oder mehr
Leicht bewölkt in der Höhe von 3000 ft
Wahrscheinlichkeit 30% :
Zeitweise
vom 18 um 03 UTC bis 18 um 09 UTC
Durchbrochene Bewölkung in der Höhe von 1400 ft

TAF: EGLL 170504Z 1706/1812 27008KT 9999 FEW030 PROB30 TEMPO 1803/1809 BKN014

Wetterbeobachtungen und Prognosen von mehr als 4000 Flughäfen (METAR und TAF Bericht).

Die verfügbaren Stationen werden durch gelbe und rote Markierungen auf der Karte dargestellt.

Führen Sie die Maus auf sie, um den Namen der Station zu sehen.

Darauf klicken, um die Beobachtung von Wetterbeobachtungen und Prognosen zu sehen.

Um die Karte zu ändern : klicken Sie auf den grünen Tasten mit einem schwarzen Kreuz Zum Vergrößern, auf den grünen Button mit einem Gedankenstrich zu verkleinern, oder auf die grünen Pfeile für benachbarte Karten.


METAR-TAF: